sensor_id;sensor_type;location;lat;lon;timestamp;temperature;humidity
25482;DHT22;13395;50.752;4.268;2023-06-22T02:32:39;19.90;99.90
25482;DHT22;13395;50.752;4.268;2023-06-22T02:35:07;20.00;99.90
25482;DHT22;13395;50.752;4.268;2023-06-22T02:37:35;20.00;99.90
25482;DHT22;13395;50.752;4.268;2023-06-22T02:40:01;20.20;99.90
25482;DHT22;13395;50.752;4.268;2023-06-22T02:42:29;20.20;99.90
25482;DHT22;13395;50.752;4.268;2023-06-22T03:00:20;19.80;99.90
25482;DHT22;13395;50.752;4.268;2023-06-22T03:02:47;19.80;99.90
25482;DHT22;13395;50.752;4.268;2023-06-22T03:05:16;19.80;99.90
25482;DHT22;13395;50.752;4.268;2023-06-22T03:10:19;19.80;99.90
25482;DHT22;13395;50.752;4.268;2023-06-22T03:12:44;19.90;99.90
25482;DHT22;13395;50.752;4.268;2023-06-22T03:15:11;19.90;99.90
25482;DHT22;13395;50.752;4.268;2023-06-22T03:17:38;19.90;99.90
25482;DHT22;13395;50.752;4.268;2023-06-22T03:20:05;19.90;99.90
25482;DHT22;13395;50.752;4.268;2023-06-22T03:38:07;19.90;99.90
25482;DHT22;13395;50.752;4.268;2023-06-22T03:58:41;20.10;99.90
25482;DHT22;13395;50.752;4.268;2023-06-22T04:03:39;20.20;99.90
25482;DHT22;13395;50.752;4.268;2023-06-22T04:26:47;20.50;99.90
25482;DHT22;13395;50.752;4.268;2023-06-22T04:29:13;20.50;99.90
25482;DHT22;13395;50.752;4.268;2023-06-22T04:52:21;20.70;99.90
25482;DHT22;13395;50.752;4.268;2023-06-22T05:10:19;20.80;99.90
25482;DHT22;13395;50.752;4.268;2023-06-22T05:25:42;20.90;99.90
25482;DHT22;13395;50.752;4.268;2023-06-22T05:28:07;20.90;99.90
25482;DHT22;13395;50.752;4.268;2023-06-22T05:30:37;20.80;99.90
25482;DHT22;13395;50.752;4.268;2023-06-22T05:33:02;20.70;99.90
25482;DHT22;13395;50.752;4.268;2023-06-22T05:35:28;20.60;99.90
25482;DHT22;13395;50.752;4.268;2023-06-22T05:37:55;20.60;99.90
25482;DHT22;13395;50.752;4.268;2023-06-22T05:40:21;20.50;99.90
25482;DHT22;13395;50.752;4.268;2023-06-22T05:42:47;20.50;99.90
25482;DHT22;13395;50.752;4.268;2023-06-22T05:45:13;20.40;99.90
25482;DHT22;13395;50.752;4.268;2023-06-22T05:47:39;20.50;99.90
25482;DHT22;13395;50.752;4.268;2023-06-22T05:50:05;20.50;99.90
25482;DHT22;13395;50.752;4.268;2023-06-22T05:52:33;20.50;99.90
25482;DHT22;13395;50.752;4.268;2023-06-22T05:54:59;20.40;99.90
25482;DHT22;13395;50.752;4.268;2023-06-22T05:57:25;20.40;99.90
25482;DHT22;13395;50.752;4.268;2023-06-22T05:59:51;20.40;99.90
25482;DHT22;13395;50.752;4.268;2023-06-22T06:02:17;20.50;99.90
25482;DHT22;13395;50.752;4.268;2023-06-22T06:04:42;20.60;99.90
25482;DHT22;13395;50.752;4.268;2023-06-22T06:07:08;20.70;99.90
25482;DHT22;13395;50.752;4.268;2023-06-22T06:09:34;20.80;99.90
25482;DHT22;13395;50.752;4.268;2023-06-22T06:14:35;20.80;99.90
25482;DHT22;13395;50.752;4.268;2023-06-22T06:17:01;20.90;99.90
25482;DHT22;13395;50.752;4.268;2023-06-22T06:19:26;20.90;99.90
25482;DHT22;13395;50.752;4.268;2023-06-22T06:21:52;21.00;99.90
25482;DHT22;13395;50.752;4.268;2023-06-22T06:24:18;21.10;99.90
25482;DHT22;13395;50.752;4.268;2023-06-22T06:26:43;21.20;99.90
25482;DHT22;13395;50.752;4.268;2023-06-22T06:29:09;21.20;99.90
25482;DHT22;13395;50.752;4.268;2023-06-22T06:31:34;21.60;99.90
25482;DHT22;13395;50.752;4.268;2023-06-22T06:34:01;21.80;99.90
25482;DHT22;13395;50.752;4.268;2023-06-22T06:36:27;22.20;99.90
25482;DHT22;13395;50.752;4.268;2023-06-22T06:38:53;22.20;99.90
25482;DHT22;13395;50.752;4.268;2023-06-22T06:41:19;22.50;99.90
25482;DHT22;13395;50.752;4.268;2023-06-22T06:43:44;22.60;99.90
25482;DHT22;13395;50.752;4.268;2023-06-22T06:46:10;22.80;99.90
25482;DHT22;13395;50.752;4.268;2023-06-22T06:48:36;22.90;99.90
25482;DHT22;13395;50.752;4.268;2023-06-22T06:51:02;22.70;99.90
25482;DHT22;13395;50.752;4.268;2023-06-22T06:53:27;22.60;99.90
25482;DHT22;13395;50.752;4.268;2023-06-22T06:55:54;22.80;99.90
25482;DHT22;13395;50.752;4.268;2023-06-22T06:58:19;22.80;99.90
25482;DHT22;13395;50.752;4.268;2023-06-22T07:00:45;22.90;99.90
25482;DHT22;13395;50.752;4.268;2023-06-22T07:03:11;23.10;99.90
25482;DHT22;13395;50.752;4.268;2023-06-22T07:05:36;23.00;99.90
25482;DHT22;13395;50.752;4.268;2023-06-22T07:08:02;23.10;99.90
25482;DHT22;13395;50.752;4.268;2023-06-22T07:10:28;23.30;99.90
25482;DHT22;13395;50.752;4.268;2023-06-22T07:12:54;23.40;99.90
25482;DHT22;13395;50.752;4.268;2023-06-22T07:15:20;23.60;99.90
25482;DHT22;13395;50.752;4.268;2023-06-22T07:17:46;23.70;99.90
25482;DHT22;13395;50.752;4.268;2023-06-22T07:20:11;23.80;99.90
25482;DHT22;13395;50.752;4.268;2023-06-22T07:22:42;24.10;99.90
25482;DHT22;13395;50.752;4.268;2023-06-22T07:25:08;24.20;99.90
25482;DHT22;13395;50.752;4.268;2023-06-22T07:27:43;24.00;99.90
25482;DHT22;13395;50.752;4.268;2023-06-22T07:30:09;23.80;99.90
25482;DHT22;13395;50.752;4.268;2023-06-22T07:32:36;23.50;99.90
25482;DHT22;13395;50.752;4.268;2023-06-22T07:35:02;23.30;99.90
25482;DHT22;13395;50.752;4.268;2023-06-22T07:37:30;23.30;99.90
25482;DHT22;13395;50.752;4.268;2023-06-22T07:39:58;23.40;99.90
25482;DHT22;13395;50.752;4.268;2023-06-22T07:42:27;23.30;99.90
25482;DHT22;13395;50.752;4.268;2023-06-22T07:44:54;23.40;99.90
25482;DHT22;13395;50.752;4.268;2023-06-22T07:47:20;23.30;99.90
25482;DHT22;13395;50.752;4.268;2023-06-22T07:49:50;23.40;99.90
25482;DHT22;13395;50.752;4.268;2023-06-22T07:52:16;23.20;99.90
25482;DHT22;13395;50.752;4.268;2023-06-22T07:54:41;23.20;99.90
25482;DHT22;13395;50.752;4.268;2023-06-22T07:57:07;23.20;99.90
25482;DHT22;13395;50.752;4.268;2023-06-22T07:59:32;23.20;99.90
25482;DHT22;13395;50.752;4.268;2023-06-22T08:01:58;23.20;99.90
25482;DHT22;13395;50.752;4.268;2023-06-22T08:04:24;23.30;99.90
25482;DHT22;13395;50.752;4.268;2023-06-22T08:06:49;23.30;99.90
25482;DHT22;13395;50.752;4.268;2023-06-22T08:09:15;23.30;99.90
25482;DHT22;13395;50.752;4.268;2023-06-22T08:11:40;23.20;99.90
25482;DHT22;13395;50.752;4.268;2023-06-22T08:14:06;22.90;99.90
25482;DHT22;13395;50.752;4.268;2023-06-22T08:16:32;22.90;99.90
25482;DHT22;13395;50.752;4.268;2023-06-22T08:18:57;22.80;99.90
25482;DHT22;13395;50.752;4.268;2023-06-22T08:21:23;22.90;99.90
25482;DHT22;13395;50.752;4.268;2023-06-22T08:23:48;22.80;99.90
25482;DHT22;13395;50.752;4.268;2023-06-22T08:26:15;22.80;99.90
25482;DHT22;13395;50.752;4.268;2023-06-22T08:28:40;22.80;99.90
25482;DHT22;13395;50.752;4.268;2023-06-22T08:31:06;22.90;99.90
25482;DHT22;13395;50.752;4.268;2023-06-22T08:33:31;22.90;99.90
25482;DHT22;13395;50.752;4.268;2023-06-22T08:46:11;22.50;99.90
25482;DHT22;13395;50.752;4.268;2023-06-22T09:30:03;22.50;99.90
25482;DHT22;13395;50.752;4.268;2023-06-22T09:32:29;22.40;99.90
25482;DHT22;13395;50.752;4.268;2023-06-22T09:34:54;22.30;99.90
25482;DHT22;13395;50.752;4.268;2023-06-22T10:05:49;20.60;99.90
25482;DHT22;13395;50.752;4.268;2023-06-22T10:08:14;20.50;99.90
25482;DHT22;13395;50.752;4.268;2023-06-22T10:10:40;20.30;99.90
25482;DHT22;13395;50.752;4.268;2023-06-22T10:13:10;20.20;99.90
25482;DHT22;13395;50.752;4.268;2023-06-22T10:15:36;20.10;99.90
25482;DHT22;13395;50.752;4.268;2023-06-22T10:18:02;20.10;99.90
25482;DHT22;13395;50.752;4.268;2023-06-22T10:20:28;19.90;99.90
25482;DHT22;13395;50.752;4.268;2023-06-22T10:22:54;19.90;99.90
25482;DHT22;13395;50.752;4.268;2023-06-22T10:25:20;19.80;99.90
25482;DHT22;13395;50.752;4.268;2023-06-22T10:27:45;19.80;99.90
25482;DHT22;13395;50.752;4.268;2023-06-22T10:30:12;19.80;99.90
25482;DHT22;13395;50.752;4.268;2023-06-22T10:32:39;19.70;99.90
25482;DHT22;13395;50.752;4.268;2023-06-22T10:35:05;19.80;99.90
25482;DHT22;13395;50.752;4.268;2023-06-22T10:37:30;19.70;99.90
25482;DHT22;13395;50.752;4.268;2023-06-22T10:39:56;19.90;99.90
25482;DHT22;13395;50.752;4.268;2023-06-22T10:42:22;20.00;99.90
25482;DHT22;13395;50.752;4.268;2023-06-22T10:49:58;19.90;99.90
25482;DHT22;13395;50.752;4.268;2023-06-22T11:05:21;20.60;99.90
25482;DHT22;13395;50.752;4.268;2023-06-22T11:07:47;20.70;99.90
25482;DHT22;13395;50.752;4.268;2023-06-22T11:10:14;20.80;99.90
25482;DHT22;13395;50.752;4.268;2023-06-22T11:17:43;20.50;99.90
25482;DHT22;13395;50.752;4.268;2023-06-22T11:22:44;20.60;99.90
25482;DHT22;13395;50.752;4.268;2023-06-22T11:25:10;20.70;99.90
25482;DHT22;13395;50.752;4.268;2023-06-22T11:27:37;20.80;99.90
25482;DHT22;13395;50.752;4.268;2023-06-22T11:35:14;20.70;99.90
25482;DHT22;13395;50.752;4.268;2023-06-22T11:40:15;20.60;99.90
25482;DHT22;13395;50.752;4.268;2023-06-22T11:45:16;20.70;99.90
25482;DHT22;13395;50.752;4.268;2023-06-22T11:50:19;20.80;99.90
25482;DHT22;13395;50.752;4.268;2023-06-22T11:52:44;20.80;99.90
25482;DHT22;13395;50.752;4.268;2023-06-22T11:57:54;20.70;99.90
25482;DHT22;13395;50.752;4.268;2023-06-22T12:00:21;20.40;99.90
25482;DHT22;13395;50.752;4.268;2023-06-22T12:02:49;20.00;99.90
25482;DHT22;13395;50.752;4.268;2023-06-22T12:23:19;19.70;99.90
25482;DHT22;13395;50.752;4.268;2023-06-22T12:25:45;19.70;99.90
25482;DHT22;13395;50.752;4.268;2023-06-22T13:38:06;19.80;99.90
25482;DHT22;13395;50.752;4.268;2023-06-22T13:40:31;19.80;99.90
25482;DHT22;13395;50.752;4.268;2023-06-22T13:42:57;19.70;99.90
25482;DHT22;13395;50.752;4.268;2023-06-22T13:45:23;19.70;99.90
25482;DHT22;13395;50.752;4.268;2023-06-22T13:47:49;19.80;99.90
25482;DHT22;13395;50.752;4.268;2023-06-22T13:50:14;19.80;99.90
25482;DHT22;13395;50.752;4.268;2023-06-22T13:52:40;19.90;99.90
25482;DHT22;13395;50.752;4.268;2023-06-22T13:55:06;19.90;99.90
25482;DHT22;13395;50.752;4.268;2023-06-22T14:00:08;20.00;99.90
25482;DHT22;13395;50.752;4.268;2023-06-22T14:02:34;19.90;99.90
25482;DHT22;13395;50.752;4.268;2023-06-22T14:05:00;19.80;99.90
25482;DHT22;13395;50.752;4.268;2023-06-22T14:07:27;19.90;99.90
25482;DHT22;13395;50.752;4.268;2023-06-22T14:09:53;19.80;99.90
25482;DHT22;13395;50.752;4.268;2023-06-22T14:12:18;19.80;99.90
25482;DHT22;13395;50.752;4.268;2023-06-22T14:14:44;19.70;99.90
25482;DHT22;13395;50.752;4.268;2023-06-22T14:19:38;19.80;99.90
25482;DHT22;13395;50.752;4.268;2023-06-22T14:27:07;19.70;99.90
25482;DHT22;13395;50.752;4.268;2023-06-22T14:32:03;19.60;99.90
25482;DHT22;13395;50.752;4.268;2023-06-22T14:34:30;19.60;99.90
25482;DHT22;13395;50.752;4.268;2023-06-22T14:36:55;19.70;99.90
25482;DHT22;13395;50.752;4.268;2023-06-22T14:39:21;19.70;99.90
25482;DHT22;13395;50.752;4.268;2023-06-22T14:41:47;19.70;99.90
25482;DHT22;13395;50.752;4.268;2023-06-22T14:44:12;19.80;99.90
25482;DHT22;13395;50.752;4.268;2023-06-22T14:46:38;19.70;99.90
25482;DHT22;13395;50.752;4.268;2023-06-22T14:49:03;19.70;99.90
25482;DHT22;13395;50.752;4.268;2023-06-22T14:51:29;19.70;99.90
25482;DHT22;13395;50.752;4.268;2023-06-22T14:53:55;19.70;99.90
25482;DHT22;13395;50.752;4.268;2023-06-22T14:58:56;20.00;99.90
25482;DHT22;13395;50.752;4.268;2023-06-22T15:01:22;20.00;99.90
25482;DHT22;13395;50.752;4.268;2023-06-22T15:06:23;20.20;99.90
25482;DHT22;13395;50.752;4.268;2023-06-22T15:13:59;20.40;99.90
25482;DHT22;13395;50.752;4.268;2023-06-22T15:16:25;20.50;99.90
25482;DHT22;13395;50.752;4.268;2023-06-22T15:18:51;20.60;99.90
25482;DHT22;13395;50.752;4.268;2023-06-22T15:21:17;20.50;99.90
25482;DHT22;13395;50.752;4.268;2023-06-22T15:23:42;20.50;99.90
25482;DHT22;13395;50.752;4.268;2023-06-22T15:33:54;20.40;99.90
25482;DHT22;13395;50.752;4.268;2023-06-22T15:36:20;20.40;99.90
25482;DHT22;13395;50.752;4.268;2023-06-22T16:04:39;21.10;99.90
25482;DHT22;13395;50.752;4.268;2023-06-22T16:20:09;20.80;99.90
25482;DHT22;13395;50.752;4.268;2023-06-22T16:27:46;20.50;99.90
25482;DHT22;13395;50.752;4.268;2023-06-22T16:30:12;20.70;99.90
25482;DHT22;13395;50.752;4.268;2023-06-22T16:32:38;20.80;99.90
25482;DHT22;13395;50.752;4.268;2023-06-22T16:35:04;20.70;99.90
25482;DHT22;13395;50.752;4.268;2023-06-22T16:37:30;20.60;99.90
25482;DHT22;13395;50.752;4.268;2023-06-22T16:39:56;20.80;99.90
25482;DHT22;13395;50.752;4.268;2023-06-22T16:42:22;20.90;99.90
25482;DHT22;13395;50.752;4.268;2023-06-22T16:44:47;21.00;99.90
25482;DHT22;13395;50.752;4.268;2023-06-22T16:47:13;21.20;99.90
25482;DHT22;13395;50.752;4.268;2023-06-22T16:49:38;21.20;99.90
25482;DHT22;13395;50.752;4.268;2023-06-22T16:52:04;21.20;99.90
25482;DHT22;13395;50.752;4.268;2023-06-22T16:54:30;21.20;99.90
25482;DHT22;13395;50.752;4.268;2023-06-22T16:56:59;21.20;99.90
25482;DHT22;13395;50.752;4.268;2023-06-22T16:59:26;21.20;99.90
25482;DHT22;13395;50.752;4.268;2023-06-22T17:01:54;21.20;99.90
25482;DHT22;13395;50.752;4.268;2023-06-22T17:04:24;21.30;99.90
25482;DHT22;13395;50.752;4.268;2023-06-22T17:06:58;21.30;99.90
25482;DHT22;13395;50.752;4.268;2023-06-22T17:09:26;21.30;99.90
25482;DHT22;13395;50.752;4.268;2023-06-22T17:14:30;21.40;99.90
25482;DHT22;13395;50.752;4.268;2023-06-22T17:16:57;21.50;99.90
25482;DHT22;13395;50.752;4.268;2023-06-22T17:21:58;21.70;99.90
25482;DHT22;13395;50.752;4.268;2023-06-22T17:24:24;21.80;99.90
25482;DHT22;13395;50.752;4.268;2023-06-22T17:26:54;21.80;99.90
25482;DHT22;13395;50.752;4.268;2023-06-22T17:29:21;21.80;99.90
25482;DHT22;13395;50.752;4.268;2023-06-22T17:31:46;21.70;99.90
25482;DHT22;13395;50.752;4.268;2023-06-22T17:34:14;21.80;99.90
25482;DHT22;13395;50.752;4.268;2023-06-22T17:39:18;21.80;99.90
25482;DHT22;13395;50.752;4.268;2023-06-22T17:41:45;21.90;99.90
25482;DHT22;13395;50.752;4.268;2023-06-22T17:46:54;21.70;99.90
25482;DHT22;13395;50.752;4.268;2023-06-22T17:49:20;21.70;99.90
25482;DHT22;13395;50.752;4.268;2023-06-22T17:51:50;21.80;99.90
25482;DHT22;13395;50.752;4.268;2023-06-22T17:54:16;21.80;99.90
25482;DHT22;13395;50.752;4.268;2023-06-22T17:56:41;21.80;99.90
25482;DHT22;13395;50.752;4.268;2023-06-22T17:59:07;21.80;99.90
25482;DHT22;13395;50.752;4.268;2023-06-22T18:01:37;21.80;99.90
25482;DHT22;13395;50.752;4.268;2023-06-22T18:04:11;21.80;99.90
25482;DHT22;13395;50.752;4.268;2023-06-22T18:09:04;21.90;99.90
25482;DHT22;13395;50.752;4.268;2023-06-22T18:11:36;21.90;99.90
25482;DHT22;13395;50.752;4.268;2023-06-22T18:14:03;22.00;99.90
25482;DHT22;13395;50.752;4.268;2023-06-22T18:16:31;22.00;99.90
25482;DHT22;13395;50.752;4.268;2023-06-22T18:18:59;22.10;99.90
25482;DHT22;13395;50.752;4.268;2023-06-22T18:21:26;22.10;99.90
25482;DHT22;13395;50.752;4.268;2023-06-22T18:23:53;22.00;99.90
25482;DHT22;13395;50.752;4.268;2023-06-22T18:26:24;22.00;99.90
25482;DHT22;13395;50.752;4.268;2023-06-22T18:28:54;22.00;99.90
25482;DHT22;13395;50.752;4.268;2023-06-22T18:31:22;21.90;99.90
25482;DHT22;13395;50.752;4.268;2023-06-22T18:36:45;21.80;99.90
25482;DHT22;13395;50.752;4.268;2023-06-22T18:39:12;21.90;99.90
25482;DHT22;13395;50.752;4.268;2023-06-22T18:41:40;21.90;99.90
25482;DHT22;13395;50.752;4.268;2023-06-22T18:44:25;21.90;99.90
25482;DHT22;13395;50.752;4.268;2023-06-22T18:46:53;21.90;99.90
25482;DHT22;13395;50.752;4.268;2023-06-22T18:49:32;21.90;99.90
25482;DHT22;13395;50.752;4.268;2023-06-22T18:52:05;22.00;99.90
25482;DHT22;13395;50.752;4.268;2023-06-22T19:10:24;21.70;99.90
25482;DHT22;13395;50.752;4.268;2023-06-22T19:12:57;21.70;99.90
25482;DHT22;13395;50.752;4.268;2023-06-22T19:15:30;21.70;99.90
25482;DHT22;13395;50.752;4.268;2023-06-22T19:18:01;21.60;99.90
25482;DHT22;13395;50.752;4.268;2023-06-22T19:20:38;21.70;99.90
25482;DHT22;13395;50.752;4.268;2023-06-22T19:23:04;21.70;99.90
25482;DHT22;13395;50.752;4.268;2023-06-22T19:25:30;21.70;99.90
25482;DHT22;13395;50.752;4.268;2023-06-22T19:27:59;21.70;99.90
25482;DHT22;13395;50.752;4.268;2023-06-22T19:30:25;21.60;99.90
25482;DHT22;13395;50.752;4.268;2023-06-22T19:32:52;21.70;99.90
25482;DHT22;13395;50.752;4.268;2023-06-22T19:35:19;21.60;99.90
25482;DHT22;13395;50.752;4.268;2023-06-22T19:37:48;21.40;99.90
25482;DHT22;13395;50.752;4.268;2023-06-22T19:40:16;21.30;99.90
25482;DHT22;13395;50.752;4.268;2023-06-22T19:42:44;21.10;99.90
25482;DHT22;13395;50.752;4.268;2023-06-22T19:45:14;21.10;99.90
25482;DHT22;13395;50.752;4.268;2023-06-22T19:47:40;21.10;99.90
25482;DHT22;13395;50.752;4.268;2023-06-22T19:50:07;20.90;99.90
25482;DHT22;13395;50.752;4.268;2023-06-22T19:52:38;20.90;99.90
25482;DHT22;13395;50.752;4.268;2023-06-22T19:55:07;20.80;99.90
25482;DHT22;13395;50.752;4.268;2023-06-22T19:57:34;20.70;99.90
25482;DHT22;13395;50.752;4.268;2023-06-22T20:00:00;20.70;99.90
25482;DHT22;13395;50.752;4.268;2023-06-22T20:02:28;20.70;99.90
25482;DHT22;13395;50.752;4.268;2023-06-22T20:04:53;20.70;99.90
25482;DHT22;13395;50.752;4.268;2023-06-22T20:07:19;20.60;99.90
25482;DHT22;13395;50.752;4.268;2023-06-22T20:09:45;20.50;99.90
25482;DHT22;13395;50.752;4.268;2023-06-22T20:12:23;20.50;99.90
25482;DHT22;13395;50.752;4.268;2023-06-22T20:14:54;20.50;99.90
25482;DHT22;13395;50.752;4.268;2023-06-22T20:17:20;20.50;99.90
25482;DHT22;13395;50.752;4.268;2023-06-22T20:19:53;20.50;99.90
25482;DHT22;13395;50.752;4.268;2023-06-22T20:22:18;20.40;99.90
25482;DHT22;13395;50.752;4.268;2023-06-22T20:24:45;20.40;99.90
25482;DHT22;13395;50.752;4.268;2023-06-22T20:27:11;20.40;99.90
25482;DHT22;13395;50.752;4.268;2023-06-22T20:29:37;20.30;99.90
25482;DHT22;13395;50.752;4.268;2023-06-22T20:32:07;20.30;99.90
25482;DHT22;13395;50.752;4.268;2023-06-22T20:34:38;20.20;99.90
25482;DHT22;13395;50.752;4.268;2023-06-22T20:37:06;20.10;99.90
25482;DHT22;13395;50.752;4.268;2023-06-22T20:39:33;19.90;99.90
25482;DHT22;13395;50.752;4.268;2023-06-22T20:41:59;19.80;99.90
25482;DHT22;13395;50.752;4.268;2023-06-22T20:44:25;19.80;99.90
25482;DHT22;13395;50.752;4.268;2023-06-22T20:46:50;19.70;99.90
25482;DHT22;13395;50.752;4.268;2023-06-22T20:49:16;19.70;99.90
25482;DHT22;13395;50.752;4.268;2023-06-22T20:51:43;19.60;99.90
25482;DHT22;13395;50.752;4.268;2023-06-22T20:54:08;19.50;99.90
25482;DHT22;13395;50.752;4.268;2023-06-22T20:56:34;19.50;99.90
25482;DHT22;13395;50.752;4.268;2023-06-22T20:59:01;19.50;99.90
25482;DHT22;13395;50.752;4.268;2023-06-22T21:01:26;19.50;99.90
25482;DHT22;13395;50.752;4.268;2023-06-22T21:04:01;19.40;99.90
25482;DHT22;13395;50.752;4.268;2023-06-22T21:06:27;19.40;99.90
25482;DHT22;13395;50.752;4.268;2023-06-22T21:08:54;19.40;99.90
25482;DHT22;13395;50.752;4.268;2023-06-22T21:11:19;19.40;99.90
25482;DHT22;13395;50.752;4.268;2023-06-22T21:13:45;19.40;99.90
25482;DHT22;13395;50.752;4.268;2023-06-22T21:16:11;19.30;99.90
25482;DHT22;13395;50.752;4.268;2023-06-22T21:18:37;19.30;99.90
25482;DHT22;13395;50.752;4.268;2023-06-22T21:21:03;19.30;99.90
25482;DHT22;13395;50.752;4.268;2023-06-22T21:23:28;19.20;99.90
25482;DHT22;13395;50.752;4.268;2023-06-22T21:25:54;19.10;99.90
25482;DHT22;13395;50.752;4.268;2023-06-22T21:28:20;19.00;99.90
25482;DHT22;13395;50.752;4.268;2023-06-22T21:30:46;18.90;99.90
25482;DHT22;13395;50.752;4.268;2023-06-22T21:33:12;18.90;99.90
25482;DHT22;13395;50.752;4.268;2023-06-22T21:35:37;18.90;99.90
25482;DHT22;13395;50.752;4.268;2023-06-22T21:38:03;18.90;99.90
25482;DHT22;13395;50.752;4.268;2023-06-22T21:40:29;18.90;99.90
25482;DHT22;13395;50.752;4.268;2023-06-22T21:42:54;18.90;99.90
25482;DHT22;13395;50.752;4.268;2023-06-22T21:45:23;18.90;99.90
25482;DHT22;13395;50.752;4.268;2023-06-22T21:47:48;18.80;99.90
25482;DHT22;13395;50.752;4.268;2023-06-22T21:50:14;18.80;99.90
25482;DHT22;13395;50.752;4.268;2023-06-22T21:52:40;18.80;99.90
25482;DHT22;13395;50.752;4.268;2023-06-22T21:55:05;18.70;99.90
25482;DHT22;13395;50.752;4.268;2023-06-22T21:57:31;18.70;99.90
25482;DHT22;13395;50.752;4.268;2023-06-22T21:59:57;18.70;99.90
25482;DHT22;13395;50.752;4.268;2023-06-22T22:02:22;18.70;99.90
25482;DHT22;13395;50.752;4.268;2023-06-22T22:04:49;18.70;99.90
25482;DHT22;13395;50.752;4.268;2023-06-22T22:07:17;18.60;99.90
25482;DHT22;13395;50.752;4.268;2023-06-22T22:09:43;18.60;99.90
25482;DHT22;13395;50.752;4.268;2023-06-22T22:12:08;18.60;99.90
25482;DHT22;13395;50.752;4.268;2023-06-22T22:14:35;18.60;99.90
25482;DHT22;13395;50.752;4.268;2023-06-22T22:17:00;18.50;99.90
25482;DHT22;13395;50.752;4.268;2023-06-22T22:19:26;18.60;99.90
25482;DHT22;13395;50.752;4.268;2023-06-22T22:21:51;18.50;99.90
25482;DHT22;13395;50.752;4.268;2023-06-22T22:24:17;18.50;99.90
25482;DHT22;13395;50.752;4.268;2023-06-22T22:26:43;18.50;99.90
25482;DHT22;13395;50.752;4.268;2023-06-22T22:29:08;18.50;99.90
25482;DHT22;13395;50.752;4.268;2023-06-22T22:31:34;18.40;99.90
25482;DHT22;13395;50.752;4.268;2023-06-22T22:34:06;18.40;99.90
25482;DHT22;13395;50.752;4.268;2023-06-22T22:36:34;18.30;99.90
25482;DHT22;13395;50.752;4.268;2023-06-22T22:39:00;18.30;99.90
25482;DHT22;13395;50.752;4.268;2023-06-22T22:41:26;18.30;99.90
25482;DHT22;13395;50.752;4.268;2023-06-22T22:43:52;18.20;99.90
25482;DHT22;13395;50.752;4.268;2023-06-22T22:46:17;18.20;99.90
25482;DHT22;13395;50.752;4.268;2023-06-22T22:48:43;18.20;99.90
25482;DHT22;13395;50.752;4.268;2023-06-22T22:51:08;18.10;99.90
25482;DHT22;13395;50.752;4.268;2023-06-22T22:53:35;18.10;99.90
25482;DHT22;13395;50.752;4.268;2023-06-22T22:56:04;18.10;99.90
25482;DHT22;13395;50.752;4.268;2023-06-22T22:58:30;18.10;99.90
25482;DHT22;13395;50.752;4.268;2023-06-22T23:00:55;18.00;99.90
25482;DHT22;13395;50.752;4.268;2023-06-22T23:03:22;18.10;99.90
25482;DHT22;13395;50.752;4.268;2023-06-22T23:05:47;18.10;99.90
25482;DHT22;13395;50.752;4.268;2023-06-22T23:08:16;18.00;99.90
25482;DHT22;13395;50.752;4.268;2023-06-22T23:10:42;17.90;99.90
25482;DHT22;13395;50.752;4.268;2023-06-22T23:13:07;17.90;99.90
25482;DHT22;13395;50.752;4.268;2023-06-22T23:15:33;17.90;99.90
25482;DHT22;13395;50.752;4.268;2023-06-22T23:17:58;17.90;99.90
25482;DHT22;13395;50.752;4.268;2023-06-22T23:20:24;17.80;99.90
25482;DHT22;13395;50.752;4.268;2023-06-22T23:22:56;17.80;99.90
25482;DHT22;13395;50.752;4.268;2023-06-22T23:25:26;17.70;99.90
25482;DHT22;13395;50.752;4.268;2023-06-22T23:27:52;17.60;99.90
25482;DHT22;13395;50.752;4.268;2023-06-22T23:30:18;17.70;99.90
25482;DHT22;13395;50.752;4.268;2023-06-22T23:32:45;17.70;99.90
25482;DHT22;13395;50.752;4.268;2023-06-22T23:35:10;17.70;99.90
25482;DHT22;13395;50.752;4.268;2023-06-22T23:37:37;17.60;99.90
25482;DHT22;13395;50.752;4.268;2023-06-22T23:40:03;17.50;99.90
25482;DHT22;13395;50.752;4.268;2023-06-22T23:42:36;17.40;99.90
25482;DHT22;13395;50.752;4.268;2023-06-22T23:45:02;17.40;99.90
25482;DHT22;13395;50.752;4.268;2023-06-22T23:47:27;17.40;99.90
25482;DHT22;13395;50.752;4.268;2023-06-22T23:49:54;17.40;99.90
25482;DHT22;13395;50.752;4.268;2023-06-22T23:52:20;17.40;99.90
25482;DHT22;13395;50.752;4.268;2023-06-22T23:54:46;17.40;99.90
25482;DHT22;13395;50.752;4.268;2023-06-22T23:57:11;17.40;99.90
25482;DHT22;13395;50.752;4.268;2023-06-22T23:59:37;17.40;99.90
